KLM467 LGAV-HEAX
Flight info
| Callsign | KLM467 |
|---|---|
| Flight time | 1h 22m |
| Altitude | 39000 |
| Route | KEA UL607 PAXIS L607 NABSI L617 NOZ |
| Aircraft | B739/M-SDE2E3FGHIRWXY/LB1 |
Departure
| Time | 2026-04-22 11:48 |
|---|---|
| Airport | Athens Eleftherios Venizelos International Airport (LGAV) |
Arrival
| Time | 2026-04-22 13:10 |
|---|---|
| Airport | Alexandria International Airport (HEAX) |
| Time | Latitude | Longitude | Altitude | Speed | Heading |
|---|---|---|---|---|---|
| 2026-04-22 11:36 | 37.93558 | 23.94799 | 298 ft | 0 kts | 306° |
| 2026-04-22 11:38 | 37.93547 | 23.94819 | 299 ft | 4 kts | 306° |
| 2026-04-22 11:39 | 37.93532 | 23.94846 | 300 ft | 4 kts | 314° |
| 2026-04-22 11:39 | 37.93513 | 23.94868 | 300 ft | 4 kts | 299° |
| 2026-04-22 11:39 | 37.93507 | 23.94876 | 301 ft | 2 kts | 217° |
| 2026-04-22 11:39 | 37.93526 | 23.94894 | 300 ft | 2 kts | 217° |
| 2026-04-22 11:40 | 37.93528 | 23.94895 | 300 ft | 0 kts | 217° |
| 2026-04-22 11:42 | 37.93527 | 23.94895 | 302 ft | 2 kts | 217° |
| 2026-04-22 11:42 | 37.93439 | 23.94885 | 303 ft | 20 kts | 134° |
| 2026-04-22 11:42 | 37.93335 | 23.94979 | 298 ft | 18 kts | 197° |
| 2026-04-22 11:43 | 37.93234 | 23.94886 | 301 ft | 18 kts | 219° |
| 2026-04-22 11:43 | 37.93127 | 23.94786 | 301 ft | 21 kts | 216° |
| 2026-04-22 11:43 | 37.92989 | 23.94662 | 301 ft | 27 kts | 215° |
| 2026-04-22 11:43 | 37.92831 | 23.94506 | 302 ft | 32 kts | 218° |
| 2026-04-22 11:44 | 37.92647 | 23.94335 | 303 ft | 23 kts | 216° |
| 2026-04-22 11:44 | 37.92637 | 23.94326 | 304 ft | 0 kts | 216° |
| 2026-04-22 11:46 | 37.92628 | 23.94318 | 302 ft | 0 kts | 216° |
| 2026-04-22 11:46 | 37.92597 | 23.94292 | 303 ft | 10 kts | 205° |
| 2026-04-22 11:47 | 37.92533 | 23.94332 | 304 ft | 12 kts | 132° |
| 2026-04-22 11:47 | 37.92497 | 23.94432 | 307 ft | 16 kts | 81° |
| 2026-04-22 11:47 | 37.92754 | 23.94706 | 301 ft | 93 kts | 37° |
| 2026-04-22 11:47 | 37.93488 | 23.95405 | 287 ft | 167 kts | 36° |
| 2026-04-22 11:48 | 37.94560 | 23.96378 | 632 ft | 202 kts | 40° |
| 2026-04-22 11:48 | 37.95677 | 23.97481 | 1590 ft | 209 kts | 41° |
| 2026-04-22 11:48 | 37.96863 | 23.98633 | 2221 ft | 225 kts | 40° |
| 2026-04-22 11:48 | 37.98169 | 23.99895 | 2803 ft | 237 kts | 38° |
| 2026-04-22 11:49 | 37.99489 | 24.01165 | 3489 ft | 242 kts | 37° |
| 2026-04-22 11:49 | 38.00388 | 24.02029 | 3895 ft | 246 kts | 36° |
| 2026-04-22 11:49 | 38.01775 | 24.03362 | 4502 ft | 253 kts | 35° |
| 2026-04-22 11:49 | 38.02958 | 24.05032 | 5116 ft | 261 kts | 64° |
| 2026-04-22 11:50 | 38.03174 | 24.07263 | 5846 ft | 259 kts | 101° |
| 2026-04-22 11:50 | 38.02426 | 24.09357 | 6345 ft | 264 kts | 131° |
| 2026-04-22 11:50 | 38.01045 | 24.10886 | 6900 ft | 265 kts | 151° |
| 2026-04-22 11:50 | 37.99432 | 24.12024 | 7510 ft | 266 kts | 157° |
| 2026-04-22 11:51 | 37.97749 | 24.13075 | 8081 ft | 274 kts | 158° |
| 2026-04-22 11:51 | 37.95966 | 24.14162 | 8447 ft | 292 kts | 158° |
| 2026-04-22 11:51 | 37.94098 | 24.15307 | 9199 ft | 300 kts | 158° |
| 2026-04-22 11:51 | 37.92241 | 24.16460 | 10083 ft | 303 kts | 158° |
| 2026-04-22 11:52 | 37.90278 | 24.17686 | 10561 ft | 323 kts | 158° |
| 2026-04-22 11:52 | 37.88205 | 24.18984 | 10760 ft | 348 kts | 157° |
| 2026-04-22 11:52 | 37.86002 | 24.20375 | 11325 ft | 358 kts | 157° |
| 2026-04-22 11:52 | 37.83754 | 24.21804 | 12120 ft | 362 kts | 157° |
| 2026-04-22 11:53 | 37.81496 | 24.23244 | 12944 ft | 366 kts | 157° |
| 2026-04-22 11:53 | 37.79211 | 24.24702 | 13735 ft | 370 kts | 157° |
| 2026-04-22 11:53 | 37.76903 | 24.26173 | 14420 ft | 375 kts | 157° |
| 2026-04-22 11:53 | 37.74554 | 24.27669 | 15104 ft | 379 kts | 158° |
| 2026-04-22 11:54 | 37.72185 | 24.29177 | 15778 ft | 384 kts | 158° |
| 2026-04-22 11:54 | 37.69790 | 24.30699 | 16456 ft | 388 kts | 158° |
| 2026-04-22 11:54 | 37.67362 | 24.32241 | 17122 ft | 393 kts | 158° |
| 2026-04-22 11:54 | 37.64909 | 24.33799 | 17789 ft | 397 kts | 158° |
| 2026-04-22 11:55 | 37.62423 | 24.35377 | 18425 ft | 401 kts | 158° |
| 2026-04-22 11:55 | 37.59918 | 24.36964 | 19035 ft | 405 kts | 158° |
| 2026-04-22 11:55 | 37.57423 | 24.38543 | 19648 ft | 408 kts | 158° |
| 2026-04-22 11:55 | 37.54843 | 24.40175 | 20245 ft | 412 kts | 158° |
| 2026-04-22 11:56 | 37.52275 | 24.41799 | 20831 ft | 415 kts | 158° |
| 2026-04-22 11:56 | 37.49674 | 24.43442 | 21419 ft | 419 kts | 158° |
| 2026-04-22 11:56 | 37.47061 | 24.45091 | 22001 ft | 422 kts | 158° |
| 2026-04-22 11:56 | 37.44423 | 24.46752 | 22581 ft | 426 kts | 158° |
| 2026-04-22 11:57 | 37.41784 | 24.48397 | 23145 ft | 429 kts | 158° |
| 2026-04-22 11:57 | 37.39100 | 24.50068 | 23658 ft | 433 kts | 158° |
| 2026-04-22 11:57 | 37.36392 | 24.51760 | 24134 ft | 436 kts | 158° |
| 2026-04-22 11:57 | 37.33666 | 24.53469 | 24616 ft | 439 kts | 158° |
| 2026-04-22 11:58 | 37.30915 | 24.55197 | 25092 ft | 442 kts | 158° |
| 2026-04-22 11:58 | 37.28151 | 24.56936 | 25557 ft | 445 kts | 158° |
| 2026-04-22 11:58 | 37.25373 | 24.58683 | 26002 ft | 448 kts | 158° |
| 2026-04-22 11:58 | 37.22577 | 24.60440 | 26462 ft | 451 kts | 158° |
| 2026-04-22 11:59 | 37.19767 | 24.62205 | 26905 ft | 454 kts | 158° |
| 2026-04-22 11:59 | 37.16928 | 24.63985 | 27348 ft | 457 kts | 158° |
| 2026-04-22 11:59 | 37.14082 | 24.65769 | 27780 ft | 459 kts | 158° |
| 2026-04-22 11:59 | 37.11215 | 24.67564 | 28210 ft | 462 kts | 158° |
| 2026-04-22 12:00 | 37.08327 | 24.69372 | 28637 ft | 465 kts | 158° |
| 2026-04-22 12:00 | 37.05429 | 24.71183 | 29027 ft | 468 kts | 158° |
| 2026-04-22 12:00 | 37.02541 | 24.72987 | 29413 ft | 471 kts | 158° |
| 2026-04-22 12:00 | 36.99562 | 24.74847 | 29811 ft | 474 kts | 158° |
| 2026-04-22 12:01 | 36.96604 | 24.76692 | 30171 ft | 476 kts | 158° |
| 2026-04-22 12:01 | 36.93667 | 24.78521 | 30487 ft | 478 kts | 158° |
| 2026-04-22 12:01 | 36.90709 | 24.80448 | 30792 ft | 483 kts | 154° |
| 2026-04-22 12:01 | 36.87819 | 24.82618 | 31071 ft | 487 kts | 152° |
| 2026-04-22 12:02 | 36.84956 | 24.84898 | 31405 ft | 488 kts | 151° |
| 2026-04-22 12:02 | 36.82105 | 24.87191 | 31776 ft | 488 kts | 152° |
| 2026-04-22 12:02 | 36.79288 | 24.89430 | 32203 ft | 487 kts | 152° |
| 2026-04-22 12:02 | 36.76419 | 24.91674 | 32649 ft | 485 kts | 152° |
| 2026-04-22 12:03 | 36.73555 | 24.93891 | 33042 ft | 484 kts | 153° |
| 2026-04-22 12:03 | 36.70693 | 24.96098 | 33401 ft | 484 kts | 153° |
| 2026-04-22 12:03 | 36.67852 | 24.98282 | 33775 ft | 483 kts | 153° |
| 2026-04-22 12:03 | 36.64992 | 25.00473 | 34147 ft | 482 kts | 153° |
| 2026-04-22 12:04 | 36.62138 | 25.02654 | 34473 ft | 481 kts | 153° |
| 2026-04-22 12:04 | 36.59314 | 25.04811 | 34747 ft | 481 kts | 153° |
| 2026-04-22 12:04 | 36.56464 | 25.06986 | 35077 ft | 480 kts | 153° |
| 2026-04-22 12:04 | 36.53623 | 25.09155 | 35399 ft | 479 kts | 153° |
| 2026-04-22 12:05 | 36.50782 | 25.11322 | 35670 ft | 479 kts | 153° |
| 2026-04-22 12:05 | 36.47942 | 25.13485 | 35936 ft | 479 kts | 153° |
| 2026-04-22 12:05 | 36.45098 | 25.15652 | 36236 ft | 478 kts | 153° |
| 2026-04-22 12:05 | 36.42265 | 25.17808 | 36526 ft | 478 kts | 153° |
| 2026-04-22 12:06 | 36.39434 | 25.19960 | 36781 ft | 478 kts | 153° |
| 2026-04-22 12:06 | 36.36600 | 25.22112 | 37025 ft | 478 kts | 153° |
| 2026-04-22 12:06 | 36.33760 | 25.24268 | 37273 ft | 477 kts | 153° |
| 2026-04-22 12:06 | 36.30928 | 25.26416 | 37506 ft | 477 kts | 153° |
| 2026-04-22 12:07 | 36.28092 | 25.28565 | 37746 ft | 477 kts | 153° |
| 2026-04-22 12:07 | 36.25262 | 25.30707 | 37974 ft | 477 kts | 153° |
| 2026-04-22 12:07 | 36.22433 | 25.32847 | 38244 ft | 476 kts | 153° |
| 2026-04-22 12:07 | 36.19606 | 25.34985 | 38491 ft | 475 kts | 153° |
| 2026-04-22 12:08 | 36.16787 | 25.37114 | 38722 ft | 474 kts | 153° |
| 2026-04-22 12:08 | 36.13963 | 25.39244 | 38860 ft | 475 kts | 153° |
| 2026-04-22 12:08 | 36.08288 | 25.43520 | 38982 ft | 477 kts | 153° |
| 2026-04-22 12:09 | 36.02627 | 25.47783 | 38985 ft | 476 kts | 153° |
| 2026-04-22 12:09 | 35.96977 | 25.52032 | 38993 ft | 475 kts | 153° |
| 2026-04-22 12:10 | 35.91319 | 25.56279 | 38993 ft | 476 kts | 153° |
| 2026-04-22 12:10 | 35.85718 | 25.60478 | 38996 ft | 476 kts | 153° |
| 2026-04-22 12:11 | 35.80063 | 25.64709 | 38996 ft | 476 kts | 153° |
| 2026-04-22 12:11 | 35.74399 | 25.68940 | 38991 ft | 476 kts | 153° |
| 2026-04-22 12:12 | 35.68736 | 25.73163 | 38999 ft | 476 kts | 153° |
| 2026-04-22 12:12 | 35.63941 | 25.76733 | 38995 ft | 477 kts | 153° |
| 2026-04-22 12:13 | 35.58261 | 25.80955 | 38995 ft | 477 kts | 153° |
| 2026-04-22 12:13 | 35.52583 | 25.85169 | 38998 ft | 478 kts | 153° |
| 2026-04-22 12:14 | 35.46886 | 25.89391 | 38998 ft | 478 kts | 153° |
| 2026-04-22 12:14 | 35.41190 | 25.93604 | 38998 ft | 478 kts | 154° |
| 2026-04-22 12:15 | 35.35490 | 25.97813 | 39001 ft | 478 kts | 154° |
| 2026-04-22 12:15 | 35.29790 | 26.02016 | 38997 ft | 478 kts | 154° |
| 2026-04-22 12:16 | 35.24121 | 26.06189 | 38973 ft | 478 kts | 154° |
| 2026-04-22 12:16 | 35.18414 | 26.10384 | 38991 ft | 478 kts | 154° |
| 2026-04-22 12:17 | 35.12721 | 26.14562 | 38994 ft | 478 kts | 154° |
| 2026-04-22 12:17 | 35.07021 | 26.18764 | 39004 ft | 479 kts | 151° |
| 2026-04-22 12:18 | 35.01779 | 26.23873 | 39011 ft | 484 kts | 143° |
| 2026-04-22 12:18 | 34.96714 | 26.29289 | 39010 ft | 484 kts | 143° |
| 2026-04-22 12:19 | 34.91634 | 26.34669 | 38991 ft | 484 kts | 143° |
| 2026-04-22 12:19 | 34.86828 | 26.39681 | 38995 ft | 483 kts | 143° |
| 2026-04-22 12:20 | 34.82089 | 26.44589 | 39004 ft | 484 kts | 144° |
| 2026-04-22 12:20 | 34.76961 | 26.49889 | 39008 ft | 484 kts | 144° |
| 2026-04-22 12:21 | 34.71822 | 26.55194 | 39011 ft | 484 kts | 144° |
| 2026-04-22 12:21 | 34.66688 | 26.60488 | 39012 ft | 484 kts | 144° |
| 2026-04-22 12:22 | 34.61554 | 26.65774 | 39006 ft | 484 kts | 144° |
| 2026-04-22 12:22 | 34.56410 | 26.71060 | 39006 ft | 484 kts | 144° |
| 2026-04-22 12:23 | 34.51296 | 26.76306 | 39013 ft | 484 kts | 144° |
| 2026-04-22 12:23 | 34.46144 | 26.81583 | 39015 ft | 485 kts | 144° |
| 2026-04-22 12:24 | 34.40989 | 26.86854 | 39011 ft | 485 kts | 144° |
| 2026-04-22 12:24 | 34.35828 | 26.92123 | 39015 ft | 485 kts | 144° |
| 2026-04-22 12:25 | 34.30671 | 26.97379 | 39006 ft | 484 kts | 144° |
| 2026-04-22 12:25 | 34.25511 | 27.02629 | 39013 ft | 484 kts | 144° |
| 2026-04-22 12:26 | 34.20356 | 27.07865 | 39014 ft | 484 kts | 144° |
| 2026-04-22 12:26 | 34.15196 | 27.13097 | 39016 ft | 484 kts | 144° |
| 2026-04-22 12:27 | 34.10027 | 27.18332 | 39014 ft | 484 kts | 144° |
| 2026-04-22 12:27 | 34.04864 | 27.23551 | 39016 ft | 484 kts | 144° |
| 2026-04-22 12:28 | 33.99690 | 27.28774 | 39016 ft | 484 kts | 144° |
| 2026-04-22 12:28 | 33.94532 | 27.33922 | 39017 ft | 483 kts | 148° |
| 2026-04-22 12:29 | 33.89022 | 27.38507 | 39033 ft | 480 kts | 152° |
| 2026-04-22 12:29 | 33.83418 | 27.42889 | 39025 ft | 481 kts | 152° |
| 2026-04-22 12:30 | 33.75032 | 27.49524 | 39005 ft | 482 kts | 151° |
| 2026-04-22 12:31 | 33.69447 | 27.53999 | 39019 ft | 482 kts | 151° |
| 2026-04-22 12:31 | 33.64050 | 27.58327 | 39024 ft | 483 kts | 151° |
| 2026-04-22 12:32 | 33.58449 | 27.62809 | 39022 ft | 483 kts | 151° |
| 2026-04-22 12:32 | 33.50057 | 27.69508 | 39025 ft | 484 kts | 151° |
| 2026-04-22 12:33 | 33.44442 | 27.73980 | 38997 ft | 484 kts | 151° |
| 2026-04-22 12:33 | 33.38834 | 27.78440 | 39017 ft | 484 kts | 152° |
| 2026-04-22 12:34 | 33.33258 | 27.82867 | 39038 ft | 485 kts | 152° |
| 2026-04-22 12:34 | 33.27624 | 27.87334 | 39027 ft | 485 kts | 152° |
| 2026-04-22 12:35 | 33.22911 | 27.91064 | 39028 ft | 486 kts | 152° |
| 2026-04-22 12:35 | 33.17303 | 27.95497 | 39028 ft | 486 kts | 152° |
| 2026-04-22 12:36 | 33.11659 | 27.99952 | 39029 ft | 486 kts | 152° |
| 2026-04-22 12:36 | 33.06010 | 28.04403 | 39027 ft | 487 kts | 152° |
| 2026-04-22 12:37 | 33.00353 | 28.08854 | 39023 ft | 487 kts | 152° |
| 2026-04-22 12:37 | 32.94694 | 28.13300 | 39026 ft | 487 kts | 152° |
| 2026-04-22 12:38 | 32.89039 | 28.17736 | 39021 ft | 487 kts | 152° |
| 2026-04-22 12:38 | 32.83373 | 28.22173 | 39012 ft | 486 kts | 152° |
| 2026-04-22 12:39 | 32.74899 | 28.28796 | 39025 ft | 486 kts | 152° |
| 2026-04-22 12:40 | 32.69235 | 28.33215 | 39025 ft | 487 kts | 152° |
| 2026-04-22 12:40 | 32.63564 | 28.37632 | 39024 ft | 487 kts | 152° |
| 2026-04-22 12:41 | 32.57894 | 28.42041 | 39022 ft | 487 kts | 152° |
| 2026-04-22 12:41 | 32.52221 | 28.46447 | 39024 ft | 487 kts | 152° |
| 2026-04-22 12:42 | 32.46580 | 28.50820 | 39022 ft | 487 kts | 152° |
| 2026-04-22 12:42 | 32.40903 | 28.55214 | 38729 ft | 493 kts | 152° |
| 2026-04-22 12:42 | 32.38007 | 28.57449 | 38017 ft | 497 kts | 152° |
| 2026-04-22 12:43 | 32.35119 | 28.59681 | 37351 ft | 494 kts | 152° |
| 2026-04-22 12:43 | 32.32254 | 28.61896 | 36664 ft | 492 kts | 152° |
| 2026-04-22 12:43 | 32.29387 | 28.64110 | 35963 ft | 491 kts | 152° |
| 2026-04-22 12:43 | 32.26525 | 28.66318 | 35171 ft | 491 kts | 152° |
| 2026-04-22 12:44 | 32.23659 | 28.68524 | 34419 ft | 492 kts | 152° |
| 2026-04-22 12:44 | 32.20803 | 28.70723 | 33855 ft | 488 kts | 152° |
| 2026-04-22 12:44 | 32.17973 | 28.72902 | 33217 ft | 484 kts | 151° |
| 2026-04-22 12:44 | 32.15165 | 28.75062 | 32620 ft | 479 kts | 151° |
| 2026-04-22 12:45 | 32.12383 | 28.77199 | 32076 ft | 473 kts | 151° |
| 2026-04-22 12:45 | 32.09642 | 28.79303 | 31525 ft | 469 kts | 151° |
| 2026-04-22 12:45 | 32.06918 | 28.81392 | 30987 ft | 464 kts | 151° |
| 2026-04-22 12:45 | 32.04218 | 28.83460 | 30459 ft | 460 kts | 151° |
| 2026-04-22 12:46 | 32.01545 | 28.85507 | 29909 ft | 456 kts | 151° |
| 2026-04-22 12:46 | 31.98890 | 28.87538 | 29285 ft | 452 kts | 150° |
| 2026-04-22 12:46 | 31.96270 | 28.89542 | 28777 ft | 446 kts | 150° |
| 2026-04-22 12:46 | 31.93685 | 28.91517 | 28251 ft | 441 kts | 150° |
| 2026-04-22 12:47 | 31.91120 | 28.93475 | 27727 ft | 437 kts | 150° |
| 2026-04-22 12:47 | 31.88588 | 28.95408 | 27199 ft | 433 kts | 150° |
| 2026-04-22 12:47 | 31.86070 | 28.97327 | 26692 ft | 429 kts | 150° |
| 2026-04-22 12:47 | 31.83574 | 28.99229 | 26176 ft | 426 kts | 150° |
| 2026-04-22 12:48 | 31.81123 | 29.01096 | 25692 ft | 423 kts | 150° |
| 2026-04-22 12:48 | 31.78660 | 29.02972 | 25190 ft | 420 kts | 150° |
| 2026-04-22 12:48 | 31.76212 | 29.04833 | 24698 ft | 418 kts | 150° |
| 2026-04-22 12:48 | 31.73830 | 29.06847 | 24189 ft | 418 kts | 141° |
| 2026-04-22 12:49 | 31.71775 | 29.09257 | 23690 ft | 417 kts | 130° |
| 2026-04-22 12:49 | 31.70053 | 29.11994 | 23133 ft | 416 kts | 126° |
| 2026-04-22 12:49 | 31.68408 | 29.14769 | 22599 ft | 413 kts | 125° |
| 2026-04-22 12:49 | 31.66777 | 29.17522 | 22101 ft | 408 kts | 125° |
| 2026-04-22 12:50 | 31.65153 | 29.20236 | 21616 ft | 404 kts | 126° |
| 2026-04-22 12:50 | 31.63532 | 29.22915 | 21132 ft | 401 kts | 126° |
| 2026-04-22 12:50 | 31.61938 | 29.25535 | 20668 ft | 397 kts | 126° |
| 2026-04-22 12:50 | 31.60336 | 29.28157 | 20196 ft | 394 kts | 126° |
| 2026-04-22 12:51 | 31.58745 | 29.30761 | 19728 ft | 391 kts | 126° |
| 2026-04-22 12:51 | 31.57161 | 29.33341 | 19266 ft | 388 kts | 126° |
| 2026-04-22 12:51 | 31.55585 | 29.35897 | 18807 ft | 385 kts | 126° |
| 2026-04-22 12:51 | 31.54023 | 29.38424 | 18350 ft | 382 kts | 126° |
| 2026-04-22 12:52 | 31.52466 | 29.40943 | 17826 ft | 379 kts | 126° |
| 2026-04-22 12:52 | 31.50927 | 29.43433 | 17326 ft | 376 kts | 126° |
| 2026-04-22 12:52 | 31.49395 | 29.45910 | 16846 ft | 373 kts | 126° |
| 2026-04-22 12:52 | 31.47881 | 29.48359 | 16380 ft | 370 kts | 126° |
| 2026-04-22 12:53 | 31.46379 | 29.50785 | 15928 ft | 366 kts | 126° |
| 2026-04-22 12:53 | 31.44890 | 29.53191 | 15470 ft | 364 kts | 126° |
| 2026-04-22 12:53 | 31.43414 | 29.55573 | 15018 ft | 361 kts | 126° |
| 2026-04-22 12:53 | 31.41943 | 29.57947 | 14571 ft | 359 kts | 126° |
| 2026-04-22 12:54 | 31.40482 | 29.60302 | 14128 ft | 357 kts | 126° |
| 2026-04-22 12:54 | 31.39025 | 29.62649 | 13651 ft | 355 kts | 126° |
| 2026-04-22 12:54 | 31.37580 | 29.64976 | 13155 ft | 353 kts | 126° |
| 2026-04-22 12:54 | 31.36158 | 29.67265 | 12695 ft | 351 kts | 126° |
| 2026-04-22 12:55 | 31.34708 | 29.69597 | 12234 ft | 348 kts | 127° |
| 2026-04-22 12:55 | 31.33288 | 29.71880 | 11785 ft | 346 kts | 127° |
| 2026-04-22 12:55 | 31.31878 | 29.74145 | 11339 ft | 344 kts | 127° |
| 2026-04-22 12:55 | 31.30473 | 29.76401 | 10898 ft | 342 kts | 127° |
| 2026-04-22 12:56 | 31.29075 | 29.78646 | 10465 ft | 340 kts | 127° |
| 2026-04-22 12:56 | 31.27709 | 29.80837 | 10301 ft | 329 kts | 127° |
| 2026-04-22 12:56 | 31.26380 | 29.82967 | 10122 ft | 319 kts | 126° |
| 2026-04-22 12:56 | 31.25097 | 29.85024 | 10009 ft | 308 kts | 126° |
| 2026-04-22 12:57 | 31.23852 | 29.87017 | 9676 ft | 304 kts | 126° |
| 2026-04-22 12:57 | 31.22604 | 29.89015 | 9304 ft | 304 kts | 126° |
| 2026-04-22 12:57 | 31.21363 | 29.91001 | 8935 ft | 302 kts | 126° |
| 2026-04-22 12:57 | 31.20123 | 29.92983 | 8592 ft | 301 kts | 126° |
| 2026-04-22 12:58 | 31.18830 | 29.94882 | 8220 ft | 294 kts | 139° |
| 2026-04-22 12:58 | 31.17135 | 29.96097 | 8032 ft | 279 kts | 156° |
| 2026-04-22 12:58 | 31.15425 | 29.97049 | 7895 ft | 266 kts | 156° |
| 2026-04-22 12:58 | 31.13798 | 29.97962 | 7769 ft | 254 kts | 156° |
| 2026-04-22 12:59 | 31.12222 | 29.98852 | 7676 ft | 250 kts | 156° |
| 2026-04-22 12:59 | 31.10675 | 29.99729 | 7577 ft | 245 kts | 156° |
| 2026-04-22 12:59 | 31.09086 | 30.00335 | 7287 ft | 238 kts | 184° |
| 2026-04-22 12:59 | 31.07501 | 29.99997 | 7082 ft | 231 kts | 200° |
| 2026-04-22 13:00 | 31.05972 | 29.99414 | 6803 ft | 231 kts | 201° |
| 2026-04-22 13:00 | 31.04450 | 29.98797 | 6535 ft | 231 kts | 201° |
| 2026-04-22 13:00 | 31.02934 | 29.98181 | 6256 ft | 231 kts | 201° |
| 2026-04-22 13:00 | 31.01414 | 29.97571 | 5960 ft | 231 kts | 202° |
| 2026-04-22 13:01 | 30.99897 | 29.96964 | 5688 ft | 231 kts | 202° |
| 2026-04-22 13:01 | 30.98379 | 29.96357 | 5394 ft | 230 kts | 200° |
| 2026-04-22 13:01 | 30.96859 | 29.95757 | 5108 ft | 230 kts | 201° |
| 2026-04-22 13:01 | 30.95341 | 29.95158 | 4846 ft | 230 kts | 200° |
| 2026-04-22 13:02 | 30.93816 | 29.94558 | 4555 ft | 232 kts | 200° |
| 2026-04-22 13:02 | 30.92280 | 29.93955 | 4258 ft | 234 kts | 200° |
| 2026-04-22 13:02 | 30.90755 | 29.93359 | 3980 ft | 234 kts | 199° |
| 2026-04-22 13:02 | 30.89208 | 29.92749 | 3678 ft | 235 kts | 201° |
| 2026-04-22 13:03 | 30.87656 | 29.92137 | 3400 ft | 236 kts | 199° |
| 2026-04-22 13:03 | 30.86093 | 29.91528 | 3118 ft | 239 kts | 200° |
| 2026-04-22 13:03 | 30.84508 | 29.90909 | 2813 ft | 242 kts | 200° |
| 2026-04-22 13:03 | 30.82910 | 29.90285 | 2542 ft | 241 kts | 200° |
| 2026-04-22 13:04 | 30.81346 | 29.89677 | 2220 ft | 233 kts | 200° |
| 2026-04-22 13:04 | 30.79988 | 29.88849 | 2047 ft | 211 kts | 225° |
| 2026-04-22 13:04 | 30.79126 | 29.87606 | 2037 ft | 186 kts | 237° |
| 2026-04-22 13:04 | 30.78390 | 29.86468 | 2011 ft | 168 kts | 237° |
| 2026-04-22 13:05 | 30.77686 | 29.85386 | 2007 ft | 166 kts | 238° |
| 2026-04-22 13:05 | 30.77141 | 29.84229 | 2005 ft | 162 kts | 264° |
| 2026-04-22 13:05 | 30.77293 | 29.82998 | 2022 ft | 157 kts | 308° |
| 2026-04-22 13:05 | 30.78032 | 29.82078 | 2051 ft | 155 kts | 316° |
| 2026-04-22 13:06 | 30.78785 | 29.81220 | 2003 ft | 149 kts | 314° |
| 2026-04-22 13:06 | 30.79545 | 29.80407 | 2031 ft | 150 kts | 319° |
| 2026-04-22 13:06 | 30.80386 | 29.79634 | 2052 ft | 155 kts | 321° |
| 2026-04-22 13:06 | 30.81237 | 29.78877 | 2042 ft | 152 kts | 322° |
| 2026-04-22 13:07 | 30.82078 | 29.78191 | 2015 ft | 147 kts | 319° |
| 2026-04-22 13:07 | 30.82852 | 29.77426 | 2015 ft | 145 kts | 320° |
| 2026-04-22 13:07 | 30.83657 | 29.76734 | 1881 ft | 143 kts | 322° |
| 2026-04-22 13:07 | 30.84460 | 29.76043 | 1716 ft | 143 kts | 321° |
| 2026-04-22 13:08 | 30.85252 | 29.75363 | 1542 ft | 141 kts | 321° |
| 2026-04-22 13:08 | 30.86015 | 29.74681 | 1337 ft | 136 kts | 322° |
| 2026-04-22 13:08 | 30.86773 | 29.74012 | 1169 ft | 139 kts | 322° |
| 2026-04-22 13:08 | 30.87554 | 29.73321 | 997 ft | 142 kts | 322° |
| 2026-04-22 13:09 | 30.88330 | 29.72613 | 779 ft | 141 kts | 321° |
| 2026-04-22 13:09 | 30.89104 | 29.71916 | 581 ft | 142 kts | 326° |
| 2026-04-22 13:09 | 30.89927 | 29.71234 | 387 ft | 149 kts | 324° |
| 2026-04-22 13:09 | 30.90766 | 29.70504 | 186 ft | 152 kts | 323° |
| 2026-04-22 13:10 | 30.91570 | 29.69800 | 160 ft | 123 kts | 322° |
| 2026-04-22 13:10 | 30.92075 | 29.69359 | 161 ft | 45 kts | 322° |
| 2026-04-22 13:10 | 30.92261 | 29.69189 | 162 ft | 34 kts | 322° |
| 2026-04-22 13:10 | 30.92457 | 29.69028 | 162 ft | 34 kts | 348° |
| 2026-04-22 13:11 | 30.92588 | 29.69161 | 163 ft | 27 kts | 52° |
| 2026-04-22 13:11 | 30.92704 | 29.69340 | 163 ft | 29 kts | 53° |
| 2026-04-22 13:11 | 30.92823 | 29.69523 | 164 ft | 27 kts | 52° |
| 2026-04-22 13:11 | 30.92944 | 29.69625 | 165 ft | 14 kts | 332° |
| 2026-04-22 13:12 | 30.93018 | 29.69553 | 165 ft | 10 kts | 323° |
| 2026-04-22 13:12 | 30.93037 | 29.69537 | 165 ft | 0 kts | 323° |
| 2026-04-22 13:12 | 30.93055 | 29.69521 | 165 ft | 9 kts | 323° |
| 2026-04-22 13:12 | 30.93111 | 29.69527 | 166 ft | 10 kts | 56° |
| 2026-04-22 13:13 | 30.93132 | 29.69561 | 166 ft | 2 kts | 51° |
| 2026-04-22 13:13 | 30.93141 | 29.69574 | 166 ft | 2 kts | 51° |
| 2026-04-22 13:13 | 30.93145 | 29.69579 | 166 ft | 0 kts | 51° |
| 2026-04-22 13:18 | 30.93145 | 29.69575 | 166 ft | 0 kts | 21° |